Tropical Cyclones
[Index]
Main Index Home Page Stock Weather Photos Extreme Storms Discussion Storm News and Storm Chasing Reports Tropical Cyclones / Hurricanes / Typhoons Weather Data and Links Wild Fires / Bushfires Weather Observation Techniques Weather Picture Catalogue Tornado Pictures and Reports Stock Video Footage and DVDs for sale
Season 1998-1999 Tropical Cyclone TROP-DEPRESSION-05 Track Map
Season 1998-1999 Summaries (Operational Data): [AU] [SIO] [SPAC] [SH]
<<- Previous TC | 1998-1999 Season | Next TC ->>

click for intensity scale information  Lat/long Grid: Show Hide

 Date Labels: Show Hide

Operational Tropical Cyclone Data

Name: TROP-DEPRESSION-05
Number: 99PE

20 May 1999 18:00 UTC to 27 May 1999 12:00 UTC

    date/time    lat    long     hPa   cat  kts
1999-05-20 18   17.5   161.0    1002         30          
1999-05-21 00   18.2   161.9     999    1    35          
1999-05-21 06   20.0   163.7     996    1    35          
1999-05-21 12   20.7   163.8     998    1    40          
1999-05-21 18   21.0   161.6     993    1    40          
1999-05-22 00   22.1   161.6     996    1    40          
1999-05-22 06   22.5   161.3     996    1    40          
1999-05-22 12   23.1   162.2     998    1    40          
1999-05-22 18   24.2   162.8     998    1    40          
1999-05-23 00   25.3   162.1     995    1    40          
1999-05-23 06   26.3   161.4     990    1    45          
1999-05-23 12   26.5   161.0     993    1    40          
1999-05-23 18   27.7   161.0     993    1    40          
1999-05-23 23   29.5   160.0     993    1    40          
1999-05-24 06   31.0   160.0     995    1    40          
1999-05-24 12   31.5   160.0     990    2    50          
1999-05-24 17   33.5   159.5     990    2    55          
1999-05-25 00   36.0   160.5     990    2    55          
1999-05-25 06   37.5   160.8     986    2    55          
1999-05-25 12   40.5   161.2     986    2    55          
1999-05-25 18   44.0   162.5     986    2    55          
1999-05-26 00   46.4   163.8     982    2    55          
1999-05-26 06   49.5   166.2     978    1    45          
1999-05-26 12   52.0   168.5     972    1    40          
1999-05-26 18   55.5   173.0     974    1    35          
1999-05-27 00   57.5   177.5     973    1    35          
1999-05-27 06   59.0   178.0W    973    1    35          
1999-05-27 12   60.5   174.0W    973         30          
Winds are 10-min average.

Tropical cyclone tracks developed by Michael Bath using operational warnings and advisories and Google Maps.


[Australian Severe Weather index] [Copyright Notice] [Email Contacts] [Search This Site] [Privacy Policy]
Document: tropical_cyclone_trop-depression-05.htm Updated: 28 May 2013